Time;durP1;ratioP1;P1;durP2;ratioP2;P2;SDS_P1;SDS_P2;PMS_P1;PMS_P2;Temp;Humidity;BMP_temperature;BMP_pressure;BME280_temperature;BME280_humidity;BME280_pressure;Samples;Min_cycle;Max_cycle;Signal;HPM_P1;HPM_P2
2022/11/10 00:01:06;;;;;;;10.33;5.43;;;15.70;90.40;;;-142.21;100.00;112049.66;5010706;28;20836;-74
2022/11/10 00:03:33;;;;;;;7.07;5.60;;;15.70;90.20;;;-142.21;100.00;112049.66;5004004;28;20478;-75
2022/11/10 00:06:03;;;;;;;7.73;5.63;;;15.70;90.10;;;-142.21;100.00;112049.66;4993182;28;20469;-75
2022/11/10 00:08:30;;;;;;;9.43;5.07;;;15.70;90.20;;;-142.21;100.00;112049.66;5006523;28;20443;-74
2022/11/10 00:11:00;;;;;;;8.60;5.23;;;15.70;90.20;;;-142.21;100.00;112049.66;4994075;28;20486;-74
2022/11/10 00:13:31;;;;;;;5.80;5.00;;;15.80;90.60;;;-142.21;100.00;112049.66;5007999;28;20989;-74
2022/11/10 00:18:45;;;;;;;7.97;5.60;;;15.80;90.10;;;-142.21;100.00;112049.66;4991827;28;20489;-75
2022/11/10 00:21:14;;;;;;;7.10;4.90;;;15.80;90.10;;;-142.21;100.00;112049.66;5005742;28;20549;-75
2022/11/10 00:23:42;;;;;;;5.27;4.60;;;15.80;90.00;;;-142.21;100.00;112049.66;4995792;28;20610;-75
2022/11/10 00:26:16;;;;;;;8.17;5.13;;;15.80;89.90;;;-142.21;100.00;112049.66;5001250;28;20528;-75
2022/11/10 00:28:45;;;;;;;7.17;5.03;;;15.70;89.90;;;-142.21;100.00;112049.66;5009913;28;20481;-75
2022/11/10 00:31:13;;;;;;;6.90;5.70;;;15.70;89.80;;;-142.21;100.00;112049.66;4993718;28;20527;-75
2022/11/10 00:33:43;;;;;;;5.57;4.33;;;15.50;90.00;;;-142.21;100.00;112049.66;4999237;28;20533;-74
2022/11/10 00:36:10;;;;;;;5.57;3.97;;;15.40;90.20;;;-142.21;100.00;112049.66;4999376;28;20473;-74
2022/11/10 00:38:38;;;;;;;5.57;4.27;;;15.40;90.10;;;-142.21;100.00;112049.66;4992507;28;20490;-74
2022/11/10 00:41:05;;;;;;;8.27;3.77;;;15.40;90.10;;;-142.21;100.00;112049.66;5000455;28;20539;-74
2022/11/10 00:43:34;;;;;;;9.67;3.90;;;15.40;90.00;;;-142.21;100.00;112049.66;4993450;28;20462;-74
2022/11/10 00:46:01;;;;;;;10.33;4.40;;;15.40;90.00;;;-142.21;100.00;112049.66;4992850;28;21046;-75
2022/11/10 00:48:29;;;;;;;5.97;3.60;;;15.40;90.00;;;-142.21;100.00;112049.66;4991991;28;20990;-75
2022/11/10 00:50:56;;;;;;;6.70;3.93;;;15.40;90.10;;;-142.21;100.00;112049.66;5011011;28;20624;-75
2022/11/10 00:53:24;;;;;;;6.73;3.50;;;15.30;90.00;;;-142.21;100.00;112049.66;5009117;28;20537;-75
2022/11/10 00:55:51;;;;;;;9.57;3.90;;;15.30;90.40;;;-142.21;100.00;112049.66;5000133;28;20453;-75
2022/11/10 00:58:18;;;;;;;5.57;3.60;;;15.40;90.00;;;-142.21;100.00;112049.66;4992529;28;20972;-75
2022/11/10 01:00:46;;;;;;;5.40;3.20;;;15.40;90.10;;;-142.21;100.00;112049.66;5002044;28;20454;-75
2022/11/10 01:03:14;;;;;;;5.37;4.30;;;15.40;89.40;;;-142.21;100.00;112049.66;4996537;28;20551;-75
2022/11/10 01:05:43;;;;;;;8.67;3.80;;;15.40;89.30;;;-142.21;100.00;112049.66;4996019;28;20470;-74
2022/11/10 01:08:11;;;;;;;7.07;3.50;;;15.40;89.30;;;-142.21;100.00;112049.66;4999627;28;20449;-74
2022/11/10 01:10:38;;;;;;;5.63;3.37;;;15.40;89.00;;;-142.21;100.00;112049.66;4996166;28;21131;-75
2022/11/10 01:13:05;;;;;;;6.67;3.43;;;15.40;89.20;;;-142.21;100.00;112049.66;5003257;28;20447;-75
2022/11/10 01:15:32;;;;;;;4.53;3.77;;;15.40;89.10;;;-142.21;100.00;112049.66;5006539;28;20486;-75
2022/11/10 01:18:02;;;;;;;6.07;3.27;;;15.40;88.90;;;-142.21;100.00;112049.66;5007179;28;20513;-75
2022/11/10 01:20:29;;;;;;;8.87;3.87;;;15.40;88.80;;;-142.21;100.00;112049.66;5020724;28;20458;-75
2022/11/10 01:22:56;;;;;;;5.63;3.47;;;15.40;88.60;;;-142.21;100.00;112049.66;5010691;28;20488;-75
2022/11/10 01:25:23;;;;;;;7.30;3.90;;;15.40;88.40;;;-142.21;100.00;112049.66;4999976;28;20477;-74
2022/11/10 01:27:51;;;;;;;4.50;3.40;;;15.40;88.20;;;-142.21;100.00;112049.66;5014983;28;20525;-75
2022/11/10 01:30:19;;;;;;;4.53;3.40;;;15.30;88.20;;;-142.21;100.00;112049.66;4999884;28;20458;-75
2022/11/10 01:32:46;;;;;;;7.37;3.57;;;15.30;88.10;;;-142.21;100.00;112049.66;5011351;28;20540;-75
2022/11/10 01:35:15;;;;;;;5.80;3.30;;;15.30;88.10;;;-142.21;100.00;112049.66;4995454;28;20538;-74
2022/11/10 01:37:42;;;;;;;7.20;3.53;;;15.20;88.00;;;-142.21;100.00;112049.66;4998748;28;20481;-74
2022/11/10 01:40:11;;;;;;;4.20;3.60;;;15.20;88.00;;;-142.21;100.00;112049.66;4997365;28;20462;-74
2022/11/10 01:42:48;;;;;;;4.60;3.17;;;15.20;88.00;;;-142.21;100.00;112049.66;5008283;28;20533;-75
2022/11/10 01:45:46;;;;;;;7.20;3.73;;;15.20;88.10;;;-142.21;100.00;112049.66;5003690;28;20634;-75
2022/11/10 01:48:23;;;;;;;6.43;3.53;;;15.20;88.00;;;-142.21;100.00;112049.66;5002397;28;20878;-74
2022/11/10 01:50:51;;;;;;;7.00;3.57;;;15.20;88.10;;;-142.21;100.00;112049.66;5010453;28;20895;-75
2022/11/10 01:53:26;;;;;;;6.03;3.20;;;15.20;87.90;;;-142.21;100.00;112049.66;5011379;28;20446;-74
2022/11/10 01:55:56;;;;;;;7.40;3.47;;;15.10;87.80;;;-142.21;100.00;112049.66;5001103;28;20473;-75
2022/11/10 01:58:31;;;;;;;6.87;3.70;;;15.10;87.90;;;-142.21;100.00;112049.66;5012987;28;20513;-75
2022/11/10 02:00:58;;;;;;;4.00;3.13;;;15.00;87.80;;;-142.21;100.00;112049.66;5001334;28;20438;-75
2022/11/10 02:03:34;;;;;;;7.77;3.60;;;15.00;87.70;;;-142.21;100.00;112049.66;4995479;28;20477;-74
2022/11/10 02:06:04;;;;;;;6.50;3.30;;;15.00;87.90;;;-142.21;100.00;112049.66;5013886;28;20464;-74
2022/11/10 02:08:32;;;;;;;10.57;5.30;;;15.00;87.80;;;-142.21;100.00;112049.66;5009173;28;20797;-75
2022/11/10 02:11:00;;;;;;;11.27;7.07;;;15.00;87.90;;;-142.21;100.00;112049.66;5007962;28;20498;-75
2022/11/10 02:13:27;;;;;;;10.37;6.93;;;15.00;87.90;;;-142.21;100.00;112049.66;5002512;28;20452;-75
2022/11/10 02:15:55;;;;;;;12.27;9.50;;;15.00;87.70;;;-142.21;100.00;112049.66;5000939;28;20465;-75
2022/11/10 02:18:23;;;;;;;14.53;11.33;;;14.90;87.60;;;-142.21;100.00;112049.66;5008371;28;20564;-74
2022/11/10 02:20:52;;;;;;;12.00;10.70;;;14.90;88.50;;;-142.21;100.00;112049.66;5011277;28;20833;-75
2022/11/10 02:23:46;;;;;;;14.53;10.60;;;14.90;87.50;;;-142.21;100.00;112049.66;4994598;28;20447;-74
2022/11/10 02:26:15;;;;;;;10.83;8.33;;;14.90;87.40;;;-142.21;100.00;112049.66;5004705;28;20438;-75
2022/11/10 02:28:42;;;;;;;9.97;6.23;;;14.90;86.80;;;-142.21;100.00;112049.66;5012042;28;20524;-75
2022/11/10 02:31:10;;;;;;;7.33;4.90;;;14.90;87.10;;;-142.21;100.00;112049.66;5007410;28;20450;-75
2022/11/10 02:33:40;;;;;;;5.37;4.40;;;14.80;87.20;;;-142.21;100.00;112049.66;5010292;28;20841;-75
2022/11/10 02:36:12;;;;;;;7.53;4.10;;;14.80;87.10;;;-142.21;100.00;112049.66;5003425;28;20529;-75
2022/11/10 02:38:40;;;;;;;6.53;3.23;;;14.70;86.60;;;-142.21;100.00;112049.66;5013027;28;20502;-75
2022/11/10 02:41:07;;;;;;;5.27;3.13;;;14.70;86.70;;;-142.21;100.00;112049.66;4999015;28;20482;-75
2022/11/10 02:43:36;;;;;;;9.57;4.00;;;14.70;86.60;;;-142.21;100.00;112049.66;4994565;28;20460;-75
2022/11/10 02:46:04;;;;;;;5.43;3.57;;;14.70;86.60;;;-142.21;100.00;112049.66;5010098;28;20452;-74
2022/11/10 02:48:31;;;;;;;5.57;3.53;;;14.60;86.30;;;-142.21;100.00;112049.66;5010780;28;20532;-75
2022/11/10 02:50:58;;;;;;;7.50;3.57;;;14.50;86.10;;;-142.21;100.00;112049.66;5003152;28;20452;-75
2022/11/10 02:53:26;;;;;;;4.23;2.97;;;14.40;86.50;;;-142.21;100.00;112049.66;5011615;28;20482;-75
2022/11/10 02:55:53;;;;;;;7.13;2.90;;;14.40;86.30;;;-142.21;100.00;112049.66;5011369;28;20537;-75
2022/11/10 02:58:21;;;;;;;5.33;3.20;;;14.40;85.40;;;-142.21;100.00;112049.66;5001613;28;20592;-75
2022/11/10 03:00:48;;;;;;;6.30;3.10;;;14.40;84.80;;;-142.21;100.00;112049.66;5012165;28;20956;-75
2022/11/10 03:03:15;;;;;;;3.20;2.70;;;14.30;84.50;;;-142.21;100.00;112049.66;5002022;28;20992;-75
2022/11/10 03:05:42;;;;;;;3.37;2.97;;;14.30;84.50;;;-142.21;100.00;112049.66;4987739;28;20856;-75
2022/11/10 03:08:09;;;;;;;4.87;2.90;;;14.30;84.50;;;-142.21;100.00;112049.66;4993979;28;20453;-75
2022/11/10 03:10:38;;;;;;;6.00;2.70;;;14.20;84.50;;;-142.21;100.00;112049.66;5003486;28;20564;-75
2022/11/10 03:13:05;;;;;;;4.83;2.77;;;14.20;84.80;;;-142.21;100.00;112049.66;5032831;28;20532;-75
2022/11/10 03:15:32;;;;;;;3.53;2.70;;;14.10;85.10;;;-142.21;100.00;112049.66;5017143;28;20486;-75
2022/11/10 03:18:04;;;;;;;3.13;2.80;;;14.10;84.40;;;-142.21;100.00;112049.66;5013099;28;20573;-74
2022/11/10 03:20:31;;;;;;;5.23;2.80;;;14.10;84.40;;;-142.21;100.00;112049.66;5010805;28;20565;-74
2022/11/10 03:23:02;;;;;;;4.23;2.87;;;14.10;84.50;;;-142.21;100.00;112049.66;5013042;28;20841;-74
2022/11/10 03:25:29;;;;;;;5.13;3.07;;;14.00;85.00;;;-142.21;100.00;112049.66;5008681;28;20965;-74
2022/11/10 03:27:58;;;;;;;5.07;3.13;;;14.00;85.10;;;-142.21;100.00;112049.66;5001244;28;20451;-75
2022/11/10 03:30:25;;;;;;;4.60;2.93;;;14.00;85.50;;;-142.21;100.00;112049.66;4952472;28;20453;-75
2022/11/10 03:32:52;;;;;;;6.07;3.10;;;14.00;85.60;;;-142.21;100.00;112049.66;5002199;28;20947;-75
2022/11/10 03:35:19;;;;;;;5.17;3.07;;;13.90;85.80;;;-142.21;100.00;112049.66;5010628;28;20446;-75
2022/11/10 03:37:46;;;;;;;8.53;3.30;;;13.90;86.00;;;-142.21;100.00;112049.66;5007334;28;20454;-75
2022/11/10 03:40:14;;;;;;;4.87;3.40;;;13.80;87.30;;;-142.21;100.00;112049.66;4993749;28;20951;-75
2022/11/10 03:42:43;;;;;;;6.20;3.87;;;13.80;86.50;;;-142.21;100.00;112049.66;5006199;28;20557;-75
2022/11/10 03:45:14;;;;;;;7.30;3.40;;;13.80;86.60;;;-142.21;100.00;112049.66;5012273;28;21057;-74
2022/11/10 03:47:44;;;;;;;5.50;3.80;;;13.80;86.50;;;-142.21;100.00;112049.66;5012457;28;20434;-75
2022/11/10 03:50:12;;;;;;;6.13;3.60;;;13.80;87.00;;;-142.21;100.00;112049.66;5012349;28;20544;-75
2022/11/10 03:52:40;;;;;;;5.43;3.60;;;13.70;87.00;;;-142.21;100.00;112049.66;5012178;28;20809;-74
2022/11/10 03:55:09;;;;;;;5.37;4.00;;;13.70;87.10;;;-142.21;100.00;112049.66;5012378;28;20492;-75
2022/11/10 03:57:36;;;;;;;5.63;3.73;;;13.70;87.30;;;-142.21;100.00;112049.66;5011537;28;20450;-75
2022/11/10 04:00:05;;;;;;;6.07;3.73;;;13.70;87.10;;;-142.21;100.00;112049.66;4960766;28;20561;-75
2022/11/10 04:02:34;;;;;;;6.33;3.57;;;13.80;87.10;;;-142.21;100.00;112049.66;5006543;28;20443;-75
2022/11/10 04:10:30;;;;;;;7.83;3.53;;;13.80;87.00;;;-142.21;100.00;112049.66;4998679;28;20493;-75
2022/11/10 04:15:42;;;;;;;11.30;3.87;;;13.80;87.10;;;-142.21;100.00;112049.66;4997622;28;20469;-74
2022/11/10 04:18:24;;;;;;;6.20;3.70;;;13.80;86.70;;;-142.21;100.00;112049.66;5003848;28;20482;-74
2022/11/10 04:20:54;;;;;;;5.20;3.20;;;13.90;86.60;;;-142.21;100.00;112049.66;5004468;28;20537;-74
2022/11/10 04:23:33;;;;;;;6.33;3.60;;;13.80;86.50;;;-142.21;100.00;112049.66;5010299;28;20552;-74
2022/11/10 04:28:51;;;;;;;6.03;3.37;;;13.90;86.40;;;-142.21;100.00;112049.66;4995976;28;20485;-74
2022/11/10 04:31:21;;;;;;;5.63;3.93;;;13.80;86.30;;;-142.21;100.00;112049.66;5003282;28;20550;-74
2022/11/10 04:33:50;;;;;;;5.53;3.77;;;13.80;86.30;;;-142.21;100.00;112049.66;4999678;28;20456;-74
2022/11/10 04:36:20;;;;;;;7.93;3.57;;;13.80;86.50;;;-142.21;100.00;112049.66;5001221;28;20962;-74
2022/11/10 04:38:48;;;;;;;4.40;3.70;;;13.80;86.50;;;-142.21;100.00;112049.66;4992227;28;20486;-74
2022/11/10 04:41:16;;;;;;;3.63;3.10;;;13.70;86.30;;;-142.21;100.00;112049.66;5008237;28;20446;-74
2022/11/10 04:43:44;;;;;;;7.23;3.20;;;13.80;86.30;;;-142.21;100.00;112049.66;5011024;28;20501;-74
2022/11/10 04:46:24;;;;;;;5.23;3.30;;;13.80;85.90;;;-142.21;100.00;112049.66;4959815;28;20451;-74
2022/11/10 04:48:54;;;;;;;6.27;3.63;;;13.80;86.00;;;-142.21;100.00;112049.66;4992134;28;20454;-75
2022/11/10 04:51:23;;;;;;;8.20;3.70;;;13.80;86.00;;;-142.21;100.00;112049.66;5008333;28;20529;-75
2022/11/10 04:53:50;;;;;;;6.63;3.57;;;13.80;85.80;;;-142.21;100.00;112049.66;5007584;28;20533;-75
2022/11/10 04:56:19;;;;;;;5.90;3.80;;;13.70;85.50;;;-142.21;100.00;112049.66;4997705;28;20450;-75
2022/11/10 04:58:47;;;;;;;3.93;3.30;;;13.70;85.80;;;-142.21;100.00;112049.66;5001924;28;20492;-76
2022/11/10 05:01:17;;;;;;;9.47;3.63;;;13.70;85.70;;;-142.21;100.00;112049.66;4994516;28;20451;-75
2022/11/10 05:03:46;;;;;;;7.90;3.87;;;13.60;85.80;;;-142.21;100.00;112049.66;5004954;28;20893;-75
2022/11/10 05:06:15;;;;;;;8.13;3.90;;;13.60;85.90;;;-142.21;100.00;112049.66;5001272;28;20533;-75
2022/11/10 05:08:43;;;;;;;4.23;3.43;;;13.50;86.60;;;-142.21;100.00;112049.66;5008699;28;20955;-75
2022/11/10 05:11:12;;;;;;;5.13;3.17;;;13.60;86.00;;;-142.21;100.00;112049.66;5009502;28;20834;-75
2022/11/10 05:13:39;;;;;;;6.43;4.10;;;13.50;85.80;;;-142.21;100.00;112049.66;5008887;28;20536;-75
2022/11/10 05:16:08;;;;;;;4.83;3.57;;;13.50;86.00;;;-142.21;100.00;112049.66;4998367;28;20552;-75
2022/11/10 05:18:36;;;;;;;4.90;3.40;;;13.50;86.00;;;-142.21;100.00;112049.66;4994211;28;20486;-75
2022/11/10 05:21:03;;;;;;;6.47;4.07;;;13.50;86.00;;;-142.21;100.00;112049.66;4992023;28;20434;-75
2022/11/10 05:23:38;;;;;;;6.67;3.60;;;13.50;86.60;;;-142.21;100.00;112049.66;5011846;28;20450;-75
2022/11/10 05:26:06;;;;;;;7.67;4.00;;;13.50;86.00;;;-142.21;100.00;112049.66;5008811;28;20469;-75
2022/11/10 05:28:34;;;;;;;4.53;3.60;;;13.50;86.00;;;-142.21;100.00;112049.66;5009916;28;20454;-75
2022/11/10 05:31:01;;;;;;;7.20;3.83;;;13.40;85.40;;;-142.21;100.00;112049.66;5007371;28;20466;-74
2022/11/10 05:33:28;;;;;;;9.37;4.27;;;13.40;85.60;;;-142.21;100.00;112049.66;4991804;28;20446;-74
2022/11/10 05:35:55;;;;;;;5.83;3.90;;;13.40;85.90;;;-142.21;100.00;112049.66;5005091;28;20478;-74
2022/11/10 05:38:22;;;;;;;6.87;3.77;;;13.30;86.00;;;-142.21;100.00;112049.66;5007653;28;20970;-74
2022/11/10 05:40:51;;;;;;;6.00;4.03;;;13.20;86.00;;;-142.21;100.00;112049.66;4992028;28;20439;-74
2022/11/10 05:43:19;;;;;;;7.53;3.90;;;13.30;86.00;;;-142.21;100.00;112049.66;4992874;28;20454;-74
2022/11/10 05:45:46;;;;;;;5.40;3.57;;;13.30;86.00;;;-142.21;100.00;112049.66;4996226;28;20537;-74
2022/11/10 05:48:13;;;;;;;4.53;3.70;;;13.30;85.90;;;-142.21;100.00;112049.66;5009087;28;20481;-74
2022/11/10 05:50:40;;;;;;;5.03;3.67;;;13.30;85.70;;;-142.21;100.00;112049.66;5005097;28;20466;-74
2022/11/10 05:53:07;;;;;;;7.17;3.70;;;13.30;85.70;;;-142.21;100.00;112049.66;4997743;28;20455;-74
2022/11/10 05:55:34;;;;;;;5.97;3.67;;;13.20;85.70;;;-142.21;100.00;112049.66;5011239;28;20442;-74
2022/11/10 05:58:03;;;;;;;5.87;3.73;;;13.30;85.60;;;-142.21;100.00;112049.66;5008339;28;20802;-74
2022/11/10 06:00:31;;;;;;;5.67;4.03;;;13.30;85.30;;;-142.21;100.00;112049.66;4988554;28;20572;-74
2022/11/10 06:03:01;;;;;;;4.53;3.77;;;13.30;85.20;;;-142.21;100.00;112049.66;5013052;28;20456;-75
2022/11/10 06:05:31;;;;;;;6.63;3.83;;;13.30;85.30;;;-142.21;100.00;112049.66;5011316;28;20829;-75
2022/11/10 06:07:59;;;;;;;9.93;3.80;;;13.30;85.30;;;-142.21;100.00;112049.66;5013579;28;20540;-75
2022/11/10 06:10:27;;;;;;;5.10;3.70;;;13.30;85.40;;;-142.21;100.00;112049.66;5009504;28;20465;-75
2022/11/10 06:12:55;;;;;;;6.80;3.80;;;13.20;85.40;;;-142.21;100.00;112049.66;5014102;28;20430;-75
2022/11/10 06:15:26;;;;;;;6.37;3.87;;;13.30;85.20;;;-142.21;100.00;112049.66;5000389;28;20545;-74
2022/11/10 06:17:54;;;;;;;6.47;3.80;;;13.30;85.00;;;-142.21;100.00;112049.66;5013798;28;20477;-74
2022/11/10 06:20:22;;;;;;;8.83;3.73;;;13.30;84.80;;;-142.21;100.00;112049.66;5006419;28;20482;-74
2022/11/10 06:23:01;;;;;;;8.13;3.73;;;13.30;84.80;;;-142.21;100.00;112049.66;4995609;28;20819;-74
2022/11/10 06:25:30;;;;;;;4.90;3.47;;;13.30;84.50;;;-142.21;100.00;112049.66;5012483;28;20450;-74
2022/11/10 06:27:58;;;;;;;5.73;3.80;;;13.30;84.50;;;-142.21;100.00;112049.66;5003110;28;20459;-74
2022/11/10 06:30:30;;;;;;;4.87;3.50;;;13.30;84.40;;;-142.21;100.00;112049.66;4996339;28;20450;-73
2022/11/10 06:32:58;;;;;;;9.37;3.77;;;13.30;84.70;;;-142.21;100.00;112049.66;5012013;28;20524;-73
2022/11/10 06:35:26;;;;;;;5.20;3.90;;;13.20;85.30;;;-142.21;100.00;112049.66;4994673;28;20455;-72
2022/11/10 06:38:05;;;;;;;5.77;3.60;;;13.10;85.00;;;-142.21;100.00;112049.66;5024399;28;20441;-75
2022/11/10 06:40:34;;;;;;;6.07;3.40;;;13.10;85.00;;;-142.21;100.00;112049.66;4994272;28;20581;-74
2022/11/10 06:43:02;;;;;;;5.70;3.80;;;13.20;84.60;;;-142.21;100.00;112049.66;5003955;28;20957;-74
2022/11/10 06:45:30;;;;;;;8.60;4.07;;;13.20;84.20;;;-142.21;100.00;112049.66;4994862;28;20447;-76
2022/11/10 06:48:03;;;;;;;6.67;4.07;;;13.20;84.60;;;-142.21;100.00;112049.66;4993342;28;20940;-74
2022/11/10 06:50:31;;;;;;;5.37;3.80;;;13.20;84.60;;;-142.21;100.00;112049.66;5012615;28;20949;-76
2022/11/10 06:53:00;;;;;;;10.20;3.70;;;13.10;84.10;;;-142.21;100.00;112049.66;4999569;28;20805;-74
2022/11/10 06:55:28;;;;;;;4.97;3.40;;;13.00;84.60;;;-142.21;100.00;112049.66;5005800;28;20446;-72
2022/11/10 06:57:55;;;;;;;5.33;3.47;;;12.90;85.00;;;-142.21;100.00;112049.66;5008561;28;20533;-72
2022/11/10 07:00:23;;;;;;;4.43;3.37;;;12.90;85.10;;;-142.21;100.00;112049.66;5008825;28;20473;-71
2022/11/10 07:03:01;;;;;;;4.57;3.93;;;13.00;85.00;;;-142.21;100.00;112049.66;5007533;28;20456;-71
2022/11/10 07:05:28;;;;;;;4.17;3.77;;;13.00;84.50;;;-142.21;100.00;112049.66;5025113;28;20476;-71
2022/11/10 07:07:55;;;;;;;5.80;3.90;;;13.10;84.80;;;-142.21;100.00;112049.66;5009462;28;20447;-71
2022/11/10 07:10:22;;;;;;;8.83;4.13;;;13.10;85.00;;;-142.21;100.00;112049.66;4993507;28;20474;-71
2022/11/10 07:12:57;;;;;;;6.03;4.13;;;13.10;85.10;;;-142.21;100.00;112049.66;5004884;28;20533;-71
2022/11/10 07:15:24;;;;;;;5.57;3.80;;;13.10;85.00;;;-142.21;100.00;112049.66;5013161;28;20965;-71
2022/11/10 07:17:51;;;;;;;6.13;4.07;;;13.10;84.80;;;-142.21;100.00;112049.66;5011729;28;20485;-71
2022/11/10 07:20:20;;;;;;;8.27;4.00;;;13.10;84.80;;;-142.21;100.00;112049.66;5015936;28;20488;-71
2022/11/10 07:22:47;;;;;;;9.10;4.70;;;13.10;84.80;;;-142.21;100.00;112049.66;5032358;28;20445;-71
2022/11/10 07:25:14;;;;;;;7.40;4.83;;;13.10;84.80;;;-142.21;100.00;112049.66;5022003;28;20446;-71
2022/11/10 07:27:44;;;;;;;6.07;4.90;;;13.10;85.10;;;-142.21;100.00;112049.66;5027664;28;20797;-71
2022/11/10 07:30:13;;;;;;;11.57;4.70;;;13.10;85.60;;;-142.21;100.00;112049.66;4994459;28;20532;-71
2022/11/10 07:32:40;;;;;;;6.03;4.60;;;13.10;85.80;;;-142.21;100.00;112049.66;5011570;28;20534;-71
2022/11/10 07:35:08;;;;;;;9.80;5.43;;;13.10;85.80;;;-142.21;100.00;112049.66;5012052;28;20450;-71
2022/11/10 07:37:37;;;;;;;9.83;4.60;;;13.20;85.70;;;-142.21;100.00;112049.66;5012715;28;20449;-71
2022/11/10 07:40:05;;;;;;;5.07;4.00;;;13.20;85.40;;;-142.21;100.00;112049.66;5012623;28;21053;-71
2022/11/10 07:42:32;;;;;;;7.13;4.67;;;13.40;85.20;;;-142.21;100.00;112049.66;5012457;28;20456;-71
2022/11/10 07:44:59;;;;;;;7.47;4.20;;;13.50;85.00;;;-142.21;100.00;112049.66;5012035;28;20446;-71
2022/11/10 07:47:26;;;;;;;8.93;4.47;;;13.60;85.00;;;-142.21;100.00;112049.66;5012550;28;20476;-71
2022/11/10 07:49:53;;;;;;;8.03;4.63;;;13.70;85.00;;;-142.21;100.00;112049.66;5011699;28;20931;-72
2022/11/10 07:52:20;;;;;;;8.27;5.20;;;13.80;85.00;;;-142.21;100.00;112049.66;5012550;28;20572;-71
2022/11/10 07:54:48;;;;;;;11.57;6.13;;;13.90;85.10;;;-142.21;100.00;112049.66;5012176;28;20452;-71
2022/11/10 07:57:16;;;;;;;6.67;5.33;;;14.00;85.30;;;-142.21;100.00;112049.66;5012670;28;20442;-71
2022/11/10 07:59:43;;;;;;;11.90;5.83;;;14.00;85.20;;;-142.21;100.00;112049.66;5011902;28;20580;-71
2022/11/10 08:02:12;;;;;;;7.17;5.20;;;14.10;85.40;;;-142.21;100.00;112049.66;5012340;28;20446;-71
2022/11/10 08:04:39;;;;;;;7.20;4.87;;;14.20;85.20;;;-142.21;100.00;112049.66;5011280;28;20962;-71
2022/11/10 08:07:06;;;;;;;12.07;6.00;;;14.30;85.40;;;-142.21;100.00;112049.66;5012350;28;20573;-71
2022/11/10 08:09:33;;;;;;;8.70;5.60;;;14.40;85.50;;;-142.21;100.00;112049.66;5012261;28;20524;-71
2022/11/10 08:12:02;;;;;;;7.97;5.00;;;14.60;85.80;;;-142.21;100.00;112049.66;5011284;28;20568;-71
2022/11/10 08:14:29;;;;;;;6.50;4.83;;;14.70;85.40;;;-142.21;100.00;112049.66;5012263;28;20450;-71
2022/11/10 08:16:56;;;;;;;6.33;4.20;;;14.90;85.20;;;-142.21;100.00;112049.66;5008020;28;20450;-72
2022/11/10 08:19:23;;;;;;;7.07;5.00;;;15.00;84.90;;;-142.21;100.00;112049.66;4992100;28;20496;-72
2022/11/10 08:21:50;;;;;;;10.07;4.07;;;15.10;84.40;;;-142.21;100.00;112049.66;4992094;28;20821;-71
2022/11/10 08:24:17;;;;;;;4.63;4.10;;;15.30;84.20;;;-142.21;100.00;112049.66;4992358;28;20530;-71
2022/11/10 08:26:44;;;;;;;7.30;4.30;;;15.50;84.20;;;-142.21;100.00;112049.66;5000982;28;20446;-71
2022/11/10 08:29:13;;;;;;;6.57;4.37;;;15.50;83.80;;;-142.21;100.00;112049.66;5012209;28;20450;-71
2022/11/10 08:31:40;;;;;;;6.73;4.27;;;15.50;83.20;;;-142.21;100.00;112049.66;5011493;28;20529;-71
2022/11/10 08:34:08;;;;;;;5.83;4.53;;;15.40;83.20;;;-142.21;100.00;112049.66;5011629;28;20541;-71
2022/11/10 08:36:36;;;;;;;6.53;4.27;;;15.50;83.10;;;-142.21;100.00;112049.66;5011797;28;20992;-71
2022/11/10 08:39:03;;;;;;;5.87;4.90;;;15.50;83.10;;;-142.21;100.00;112049.66;5017429;28;20446;-71
2022/11/10 08:41:30;;;;;;;9.30;5.03;;;15.60;82.80;;;-142.21;100.00;112049.66;5018684;28;20486;-71
2022/11/10 08:43:58;;;;;;;10.33;5.00;;;15.60;83.00;;;-142.21;100.00;112049.66;5018466;28;20860;-71
2022/11/10 08:46:26;;;;;;;8.13;5.13;;;15.60;83.00;;;-142.21;100.00;112049.66;4996567;28;20446;-71
2022/11/10 08:48:53;;;;;;;10.43;5.40;;;15.60;84.20;;;-142.21;100.00;112049.66;5011396;28;20458;-72
2022/11/10 08:51:21;;;;;;;10.37;4.87;;;15.60;82.60;;;-142.21;100.00;112049.66;5012318;28;20442;-71
2022/11/10 08:53:48;;;;;;;6.60;4.80;;;15.60;82.20;;;-142.21;100.00;112049.66;5011882;28;20950;-71
2022/11/10 08:56:15;;;;;;;8.07;5.13;;;15.50;82.50;;;-142.21;100.00;112049.66;5013207;28;20444;-71
2022/11/10 08:58:42;;;;;;;10.53;5.40;;;15.60;82.80;;;-142.21;100.00;112049.66;5012566;28;20444;-71
2022/11/10 09:01:10;;;;;;;5.90;4.60;;;15.70;83.10;;;-142.21;100.00;112049.66;5012890;28;20517;-71
2022/11/10 09:03:39;;;;;;;9.97;5.00;;;15.80;83.20;;;-142.21;100.00;112049.66;5012963;28;20446;-71
2022/11/10 09:06:06;;;;;;;6.73;4.63;;;15.90;82.60;;;-142.21;100.00;112049.66;5011746;28;20791;-71
2022/11/10 09:08:33;;;;;;;8.70;4.07;;;16.10;82.90;;;-142.21;100.00;112049.66;5012049;28;20577;-72
2022/11/10 09:11:03;;;;;;;6.83;4.37;;;16.20;81.60;;;-142.21;100.00;112049.66;5002377;28;20471;-71
2022/11/10 09:13:31;;;;;;;7.27;4.57;;;16.30;81.10;;;-142.21;100.00;112049.66;4993198;28;20480;-71
2022/11/10 09:16:01;;;;;;;7.53;4.20;;;16.40;81.40;;;-142.21;100.00;112049.66;4992658;28;20529;-71
2022/11/10 09:18:29;;;;;;;11.00;6.87;;;16.60;81.60;;;-142.21;100.00;112049.66;4977584;28;20442;-72
2022/11/10 09:20:57;;;;;;;8.43;5.97;;;16.80;80.40;;;-142.21;100.00;112049.66;4972841;28;20578;-71
2022/11/10 09:23:25;;;;;;;9.57;5.57;;;16.90;79.80;;;-142.21;100.00;112049.66;4972552;28;20974;-71
2022/11/10 09:25:56;;;;;;;6.83;4.23;;;16.80;79.70;;;-142.21;100.00;112049.66;4976739;28;20547;-71
2022/11/10 09:28:24;;;;;;;7.03;4.43;;;16.70;79.70;;;-142.21;100.00;112049.66;4995532;28;20522;-71
2022/11/10 09:30:52;;;;;;;7.17;4.00;;;16.80;80.60;;;-142.21;100.00;112049.66;4995125;28;20471;-71
2022/11/10 09:33:19;;;;;;;5.67;4.13;;;16.90;79.80;;;-142.21;100.00;112049.66;4995885;28;20799;-71
2022/11/10 09:35:47;;;;;;;6.47;3.97;;;16.90;80.70;;;-142.21;100.00;112049.66;4995068;28;20489;-71
2022/11/10 09:38:15;;;;;;;6.07;4.30;;;17.10;80.50;;;-142.21;100.00;112049.66;4995723;28;20558;-71
2022/11/10 09:40:58;;;;;;;4.57;3.60;;;17.30;80.20;;;-142.21;100.00;112049.66;4995509;28;20491;-71
2022/11/10 09:43:34;;;;;;;6.63;3.93;;;17.40;79.40;;;-142.21;100.00;112049.66;4995245;28;20431;-71
2022/11/10 09:46:10;;;;;;;5.53;3.87;;;17.70;79.40;;;-142.21;100.00;112049.66;4994269;28;20463;-71
2022/11/10 09:48:45;;;;;;;7.07;6.10;;;17.90;79.00;;;-142.21;100.00;112049.66;4995221;28;20427;-71
2022/11/10 09:51:19;;;;;;;5.23;3.40;;;18.10;77.90;;;-142.21;100.00;112049.66;4995409;28;20542;-70
2022/11/10 09:53:56;;;;;;;6.53;5.17;;;18.10;77.20;;;-142.21;100.00;112049.66;4994937;28;20514;-71
2022/11/10 09:56:34;;;;;;;6.00;4.93;;;18.20;76.90;;;-142.21;100.00;112049.66;4995371;28;20433;-70
2022/11/10 09:59:05;;;;;;;6.43;3.60;;;18.10;77.00;;;-142.21;100.00;112049.66;4994193;28;20537;-71
2022/11/10 10:01:45;;;;;;;3.40;3.10;;;18.10;77.30;;;-142.21;100.00;112049.66;4995140;28;20565;-71
2022/11/10 10:04:36;;;;;;;6.73;3.90;;;18.30;77.20;;;-142.21;100.00;112049.66;4995058;28;20545;-70
2022/11/10 10:07:12;;;;;;;4.47;2.90;;;18.50;75.40;;;-142.21;100.00;112049.66;4994630;28;20426;-71
2022/11/10 10:09:52;;;;;;;7.77;3.00;;;18.70;76.40;;;-142.21;100.00;112049.66;4995291;28;20430;-71
2022/11/10 10:12:44;;;;;;;4.23;2.93;;;19.00;75.80;;;-142.21;100.00;112049.66;5014516;28;20452;-70
2022/11/10 10:15:29;;;;;;;5.90;4.10;;;19.20;74.00;;;-142.21;98.12;112049.66;5013943;28;20430;-72